createdAt,value
2022-12-10T00:02:09.194Z,2.06
2022-12-10T00:04:51.177Z,2.04
2022-12-10T00:07:39.181Z,1.86
2022-12-10T00:10:45.663Z,2.13
2022-12-10T00:13:30.840Z,2.07
2022-12-10T00:16:00.933Z,3.99
2022-12-10T00:18:53.413Z,2.26
2022-12-10T00:21:58.161Z,2.79
2022-12-10T00:24:42.748Z,2.19
2022-12-10T00:27:15.367Z,3.28
2022-12-10T00:29:44.668Z,4.20
2022-12-10T00:32:12.050Z,2.96
2022-12-10T00:34:43.810Z,2.80
2022-12-10T00:37:31.130Z,3.67
2022-12-10T00:40:14.484Z,3.13
2022-12-10T00:42:42.337Z,3.36
2022-12-10T00:45:14.762Z,1.99
2022-12-10T00:47:42.000Z,2.75
2022-12-10T00:50:29.057Z,3.26
2022-12-10T00:53:09.580Z,3.97
2022-12-10T00:55:36.464Z,3.42
2022-12-10T00:58:03.437Z,3.54
2022-12-10T01:00:30.711Z,4.21
2022-12-10T01:02:57.830Z,3.98
2022-12-10T01:05:25.790Z,4.07
2022-12-10T01:08:13.071Z,4.12
2022-12-10T01:10:54.479Z,3.76
2022-12-10T01:13:23.656Z,4.37
2022-12-10T01:15:51.118Z,4.35
2022-12-10T01:18:38.151Z,4.08
2022-12-10T01:21:34.275Z,4.15
2022-12-10T01:24:15.815Z,4.20
2022-12-10T01:26:44.855Z,3.30
2022-12-10T01:29:12.537Z,4.24
2022-12-10T01:31:41.520Z,4.34
2022-12-10T01:34:12.674Z,4.18
2022-12-10T01:36:42.894Z,3.91
2022-12-10T01:39:14.837Z,4.21
2022-12-10T01:42:09.123Z,4.03
2022-12-10T01:44:49.657Z,4.08
2022-12-10T01:47:16.691Z,2.44
2022-12-10T01:49:43.711Z,4.09
2022-12-10T01:52:14.518Z,2.55
2022-12-10T01:55:02.078Z,2.08
2022-12-10T01:57:42.749Z,2.37
2022-12-10T02:00:11.550Z,4.30
2022-12-10T02:02:46.681Z,4.42
2022-12-10T02:05:20.146Z,4.27
2022-12-10T02:08:39.059Z,4.32
2022-12-10T02:11:58.109Z,4.06
2022-12-10T02:15:01.973Z,3.58
2022-12-10T02:18:00.329Z,3.38
2022-12-10T02:20:54.424Z,3.15
2022-12-10T02:23:34.463Z,1.86
2022-12-10T02:26:29.790Z,4.16
2022-12-10T02:29:29.242Z,4.11
2022-12-10T02:32:39.154Z,3.71
2022-12-10T02:35:32.664Z,4.27
2022-12-10T02:38:11.460Z,4.18
2022-12-10T02:40:42.773Z,4.05
2022-12-10T02:43:13.507Z,4.13
2022-12-10T02:45:42.595Z,2.39
2022-12-10T02:48:12.438Z,3.39
2022-12-10T02:50:43.145Z,2.40
2022-12-10T02:53:10.577Z,3.11
2022-12-10T02:56:05.131Z,4.42
2022-12-10T02:59:03.978Z,2.43
2022-12-10T03:01:57.146Z,4.38
2022-12-10T03:04:58.588Z,4.44
2022-12-10T03:07:55.194Z,3.04
2022-12-10T03:10:52.223Z,4.23
2022-12-10T03:13:22.973Z,4.18
2022-12-10T03:15:52.889Z,4.07
2022-12-10T03:18:43.146Z,2.46
2022-12-10T03:21:35.876Z,4.04
2022-12-10T03:24:11.336Z,3.16
2022-12-10T03:26:42.324Z,2.36
2022-12-10T03:29:16.481Z,4.11
2022-12-10T03:31:45.075Z,3.35
2022-12-10T03:34:32.264Z,2.10
2022-12-10T03:37:36.208Z,2.18
2022-12-10T03:40:41.226Z,2.26
2022-12-10T03:43:22.494Z,4.22
2022-12-10T03:45:50.342Z,2.46
2022-12-10T03:48:17.946Z,2.05
2022-12-10T03:50:45.312Z,3.45
2022-12-10T03:53:21.838Z,2.05
2022-12-10T03:55:49.404Z,3.49
2022-12-10T03:58:20.315Z,4.38
2022-12-10T04:01:08.188Z,3.75
2022-12-10T04:03:49.555Z,3.44
2022-12-10T04:06:38.141Z,4.29
2022-12-10T04:09:20.378Z,3.96
2022-12-10T04:11:47.977Z,4.16
2022-12-10T04:14:33.395Z,3.51
2022-12-10T04:17:20.117Z,3.91
2022-12-10T04:20:00.755Z,4.26
2022-12-10T04:22:46.353Z,4.39
2022-12-10T04:25:32.349Z,4.19
2022-12-10T04:27:59.350Z,4.18
2022-12-10T04:30:26.384Z,4.55
2022-12-10T04:32:53.252Z,4.16
2022-12-10T04:35:20.112Z,3.73
2022-12-10T04:37:47.140Z,4.15
2022-12-10T04:40:14.165Z,4.39
2022-12-10T04:42:41.058Z,4.19
2022-12-10T04:45:08.865Z,4.48
2022-12-10T04:47:56.150Z,4.17
2022-12-10T04:50:57.268Z,4.37
2022-12-10T04:53:37.730Z,4.44
2022-12-10T04:56:06.202Z,3.91
2022-12-10T04:58:33.872Z,3.74
2022-12-10T05:01:05.749Z,4.18
2022-12-10T05:03:33.152Z,4.35
2022-12-10T05:06:11.150Z,4.14
2022-12-10T05:08:58.278Z,3.91
2022-12-10T05:11:52.138Z,3.90
2022-12-10T05:14:32.828Z,3.67
2022-12-10T05:17:20.355Z,3.98
2022-12-10T05:20:00.931Z,4.47
2022-12-10T05:22:46.784Z,3.90
2022-12-10T05:25:14.267Z,4.39
2022-12-10T05:27:41.201Z,3.28
2022-12-10T05:30:09.489Z,4.08
2022-12-10T05:32:56.227Z,3.51
2022-12-10T05:35:36.895Z,4.30
2022-12-10T05:38:04.566Z,3.36
2022-12-10T05:40:31.651Z,3.55
2022-12-10T05:42:59.146Z,2.59
2022-12-10T05:45:26.328Z,4.39
2022-12-10T05:47:53.588Z,4.21
2022-12-10T05:50:21.047Z,3.83
2022-12-10T05:52:48.256Z,3.88
2022-12-10T05:55:15.325Z,4.14
2022-12-10T05:57:42.238Z,4.20
2022-12-10T06:00:10.268Z,4.06
2022-12-10T06:03:07.212Z,4.09
2022-12-10T06:06:08.205Z,4.27
2022-12-10T06:09:10.304Z,4.36
2022-12-10T06:11:51.408Z,4.16
2022-12-10T06:14:18.324Z,4.36
2022-12-10T06:17:05.278Z,3.36
2022-12-10T06:20:06.512Z,3.90
2022-12-10T06:23:07.196Z,4.05
2022-12-10T06:25:39.939Z,3.75
2022-12-10T06:28:08.301Z,3.36
2022-12-10T06:30:35.748Z,3.15
2022-12-10T06:33:03.529Z,3.61
2022-12-10T06:35:30.828Z,4.04
2022-12-10T06:37:58.655Z,3.12
2022-12-10T06:40:26.018Z,4.28
2022-12-10T06:42:53.610Z,4.42
2022-12-10T06:45:20.902Z,3.98
2022-12-10T06:47:48.097Z,4.36
2022-12-10T06:50:15.297Z,4.41
2022-12-10T06:53:04.379Z,4.13
2022-12-10T06:56:05.290Z,3.81
2022-12-10T06:58:47.044Z,3.32
2022-12-10T07:01:28.604Z,4.24
2022-12-10T07:03:57.783Z,4.22
2022-12-10T07:06:46.425Z,3.65
2022-12-10T07:09:48.396Z,3.83
2022-12-10T07:12:36.055Z,3.77
2022-12-10T07:15:03.935Z,3.74
2022-12-10T07:17:52.249Z,4.22
2022-12-10T07:20:53.288Z,3.92
2022-12-10T07:23:33.979Z,3.45
2022-12-10T07:26:00.948Z,2.68
2022-12-10T07:28:32.449Z,4.01
2022-12-10T07:31:06.360Z,4.26
2022-12-10T07:33:34.289Z,4.07
2022-12-10T07:36:08.354Z,3.01
2022-12-10T07:38:35.728Z,3.90
2022-12-10T07:41:07.006Z,3.83
2022-12-10T07:43:39.135Z,4.08
2022-12-10T07:46:08.326Z,3.78
2022-12-10T07:48:36.961Z,3.98
2022-12-10T07:51:04.652Z,4.47
2022-12-10T07:53:32.309Z,4.22
2022-12-10T07:56:20.332Z,4.23
2022-12-10T07:59:01.187Z,3.61
2022-12-10T08:01:29.515Z,4.00
2022-12-10T08:04:16.522Z,4.45
2022-12-10T08:07:18.097Z,4.39
2022-12-10T08:10:19.293Z,3.68
2022-12-10T08:13:21.293Z,3.95
2022-12-10T08:16:26.375Z,4.48
2022-12-10T08:19:30.012Z,4.21
2022-12-10T08:21:59.094Z,4.46
2022-12-10T08:24:26.361Z,4.60
2022-12-10T08:26:53.585Z,4.65
2022-12-10T08:29:21.948Z,4.37
2022-12-10T08:31:49.065Z,3.83
2022-12-10T08:34:18.121Z,4.25
2022-12-10T08:36:46.193Z,4.02
2022-12-10T08:39:17.691Z,4.50
2022-12-10T08:41:46.106Z,5.15
2022-12-10T08:44:33.436Z,5.01
2022-12-10T08:47:13.878Z,4.44
2022-12-10T08:49:40.956Z,4.89
2022-12-10T08:52:28.253Z,4.45
2022-12-10T08:55:29.301Z,5.04
2022-12-10T08:58:30.308Z,4.79
2022-12-10T09:01:15.161Z,4.70
2022-12-10T09:04:04.283Z,3.72
2022-12-10T09:07:08.326Z,4.14
2022-12-10T09:10:11.614Z,4.31
2022-12-10T09:12:51.799Z,4.60
2022-12-10T09:15:39.308Z,4.20
2022-12-10T09:18:40.296Z,4.45
2022-12-10T09:21:31.537Z,4.58
2022-12-10T09:23:58.960Z,4.63
2022-12-10T09:26:26.384Z,4.41
2022-12-10T09:28:53.596Z,4.61
2022-12-10T09:31:21.270Z,4.40
2022-12-10T09:33:50.150Z,4.42
2022-12-10T09:36:17.318Z,4.83
2022-12-10T09:38:58.634Z,4.07
2022-12-10T09:42:03.881Z,4.97
2022-12-10T09:44:37.283Z,4.81
2022-12-10T09:47:08.731Z,4.07
2022-12-10T09:50:00.680Z,4.77
2022-12-10T09:52:34.011Z,4.11
2022-12-10T09:55:13.104Z,4.07
2022-12-10T09:58:04.331Z,4.34
2022-12-10T10:01:08.119Z,4.71
2022-12-10T10:03:41.360Z,4.68
2022-12-10T10:06:29.322Z,4.97
2022-12-10T10:09:21.008Z,4.85
2022-12-10T10:11:48.540Z,4.46
2022-12-10T10:14:28.161Z,2.68
2022-12-10T10:17:33.313Z,4.63
2022-12-10T10:20:27.476Z,4.41
2022-12-10T10:23:10.177Z,4.86
2022-12-10T10:25:37.283Z,5.08
2022-12-10T10:28:04.439Z,4.05
2022-12-10T10:30:31.688Z,3.53
2022-12-10T10:33:22.404Z,4.14
2022-12-10T10:36:15.116Z,5.12
2022-12-10T10:38:48.627Z,4.78
2022-12-10T10:41:15.852Z,4.46
2022-12-10T10:44:09.411Z,4.96
2022-12-10T10:47:10.435Z,4.43
2022-12-10T10:50:12.658Z,5.29
2022-12-10T10:53:01.154Z,4.22
2022-12-10T10:55:37.234Z,4.95
2022-12-10T10:58:04.517Z,4.35
2022-12-10T11:00:31.626Z,5.02
2022-12-10T11:03:21.358Z,5.54
2022-12-10T11:06:22.364Z,5.37
2022-12-10T11:09:39.326Z,5.11
2022-12-10T11:12:30.538Z,4.99
2022-12-10T11:14:57.474Z,5.30
2022-12-10T11:17:44.353Z,3.73
2022-12-10T11:20:31.259Z,5.51
2022-12-10T11:23:25.340Z,5.75
2022-12-10T11:26:41.253Z,5.65
2022-12-10T11:29:40.566Z,5.62
2022-12-10T11:32:30.041Z,5.85
2022-12-10T11:35:28.654Z,5.22
2022-12-10T11:38:21.442Z,5.36
2022-12-10T11:40:54.060Z,4.59
2022-12-10T11:43:27.049Z,5.65
2022-12-10T11:46:32.403Z,5.46
2022-12-10T11:49:25.632Z,5.74
2022-12-10T11:52:05.345Z,5.52
2022-12-10T11:54:48.818Z,5.83
2022-12-10T11:57:21.890Z,5.46
2022-12-10T12:00:15.583Z,5.82
2022-12-10T12:03:25.591Z,5.66
2022-12-10T12:06:51.582Z,5.08
2022-12-10T12:09:47.728Z,5.76
2022-12-10T12:12:17.615Z,5.66
2022-12-10T12:14:53.286Z,5.73
2022-12-10T12:18:05.369Z,5.63
2022-12-10T12:21:29.492Z,5.61
2022-12-10T12:24:31.726Z,5.63
2022-12-10T12:27:27.146Z,5.52
2022-12-10T12:30:06.626Z,5.02
2022-12-10T12:33:02.394Z,5.46
2022-12-10T12:35:50.254Z,5.48
2022-12-10T12:38:41.395Z,5.29
2022-12-10T12:42:16.462Z,4.85
2022-12-10T12:45:27.424Z,5.04
2022-12-10T12:48:19.970Z,5.85
2022-12-10T12:51:07.730Z,5.77
2022-12-10T12:53:35.939Z,5.49
2022-12-10T12:56:19.223Z,5.60
2022-12-10T12:59:13.765Z,5.73
2022-12-10T13:02:16.091Z,5.55
2022-12-10T13:05:07.455Z,5.75
2022-12-10T13:08:27.476Z,5.98
2022-12-10T13:11:11.504Z,5.96
2022-12-10T13:14:17.430Z,6.24
2022-12-10T13:17:46.428Z,5.87
2022-12-10T13:21:11.702Z,5.91
2022-12-10T13:23:53.778Z,5.34
2022-12-10T13:26:27.633Z,5.00
2022-12-10T13:28:56.492Z,6.05
2022-12-10T13:31:37.739Z,6.29
2022-12-10T13:34:05.461Z,6.61
2022-12-10T13:36:47.583Z,6.64
2022-12-10T13:39:36.218Z,6.47
2022-12-10T13:42:24.849Z,6.30
2022-12-10T13:45:16.439Z,6.63
2022-12-10T13:48:29.483Z,6.40
2022-12-10T13:51:40.148Z,6.41
2022-12-10T13:54:18.368Z,6.28
2022-12-10T13:57:06.092Z,5.73
2022-12-10T14:00:07.985Z,5.83
2022-12-10T14:03:26.475Z,5.95
2022-12-10T14:06:33.450Z,6.04
2022-12-10T14:09:40.460Z,5.78
2022-12-10T14:12:55.081Z,6.32
2022-12-10T14:16:13.894Z,5.94
2022-12-10T14:19:20.694Z,6.10
2022-12-10T14:22:22.580Z,6.01
2022-12-10T14:25:07.661Z,6.35
2022-12-10T14:27:50.448Z,6.40
2022-12-10T14:30:48.612Z,6.13
2022-12-10T14:33:39.461Z,5.78
2022-12-10T14:36:47.443Z,5.47
2022-12-10T14:39:31.798Z,5.94
2022-12-10T14:42:01.934Z,5.90
2022-12-10T14:44:53.473Z,5.63
2022-12-10T14:47:54.456Z,5.88
2022-12-10T14:50:35.595Z,5.89
2022-12-10T14:53:02.697Z,5.11
2022-12-10T14:55:29.816Z,6.02
2022-12-10T14:58:02.814Z,4.96
2022-12-10T15:00:49.441Z,5.65
2022-12-10T15:03:59.485Z,5.74
2022-12-10T15:07:01.700Z,5.95
2022-12-10T15:10:04.496Z,5.24
2022-12-10T15:13:07.476Z,5.29
2022-12-10T15:16:08.516Z,5.50
2022-12-10T15:19:10.565Z,5.72
2022-12-10T15:22:29.481Z,5.47
2022-12-10T15:24:58.514Z,5.59
2022-12-10T15:27:27.085Z,4.81
2022-12-10T15:30:34.485Z,5.06
2022-12-10T15:33:48.568Z,5.39
2022-12-10T15:36:34.933Z,4.23
2022-12-10T15:39:16.621Z,5.62
2022-12-10T15:41:45.199Z,5.65
2022-12-10T15:44:26.946Z,5.55
2022-12-10T15:47:03.185Z,5.46
2022-12-10T15:49:50.458Z,5.00
2022-12-10T15:52:52.534Z,5.39
2022-12-10T15:55:33.103Z,5.32
2022-12-10T15:58:00.286Z,5.02
2022-12-10T16:00:28.765Z,4.70
2022-12-10T16:02:58.243Z,5.43
2022-12-10T16:05:32.305Z,5.27
2022-12-10T16:08:42.490Z,4.87
2022-12-10T16:11:43.527Z,4.98
2022-12-10T16:14:44.512Z,5.04
2022-12-10T16:17:45.521Z,5.31
2022-12-10T16:20:29.193Z,5.46
2022-12-10T16:22:57.641Z,5.21
2022-12-10T16:25:27.009Z,5.06
2022-12-10T16:28:14.489Z,5.47
2022-12-10T16:31:01.518Z,5.41
2022-12-10T16:33:29.080Z,5.09
2022-12-10T16:36:16.647Z,5.48
2022-12-10T16:38:57.041Z,5.19
2022-12-10T16:41:25.454Z,5.44
2022-12-10T16:43:52.543Z,5.42
2022-12-10T16:46:19.627Z,5.10
2022-12-10T16:49:06.525Z,4.13
2022-12-10T16:51:54.836Z,5.02
2022-12-10T16:54:21.890Z,4.65
2022-12-10T16:56:49.324Z,5.57
2022-12-10T16:59:37.700Z,4.15
2022-12-10T17:02:38.601Z,4.46
2022-12-10T17:05:46.581Z,5.19
2022-12-10T17:08:40.571Z,5.47
2022-12-10T17:11:52.573Z,4.60
2022-12-10T17:14:55.662Z,5.11
2022-12-10T17:17:56.560Z,4.99
2022-12-10T17:20:37.140Z,4.69
2022-12-10T17:23:03.962Z,5.01
2022-12-10T17:25:31.816Z,4.58
2022-12-10T17:28:00.106Z,4.92
2022-12-10T17:30:47.549Z,4.97
2022-12-10T17:33:28.081Z,4.94
2022-12-10T17:36:15.565Z,4.60
2022-12-10T17:38:56.340Z,4.36
2022-12-10T17:41:23.396Z,3.86
2022-12-10T17:43:50.918Z,3.36
2022-12-10T17:46:23.462Z,4.52
2022-12-10T17:49:10.571Z,4.21
2022-12-10T17:51:51.211Z,3.94
2022-12-10T17:54:18.808Z,4.28
2022-12-10T17:56:45.832Z,2.76
2022-12-10T17:59:15.522Z,4.21
2022-12-10T18:02:02.666Z,4.04
2022-12-10T18:05:03.968Z,3.61
2022-12-10T18:08:04.628Z,4.04
2022-12-10T18:11:06.581Z,3.99
2022-12-10T18:13:48.112Z,3.83
2022-12-10T18:16:38.578Z,3.50
2022-12-10T18:19:19.270Z,3.44
2022-12-10T18:21:51.874Z,3.61
2022-12-10T18:24:20.650Z,3.79
2022-12-10T18:26:47.686Z,3.59
2022-12-10T18:29:34.561Z,3.77
2022-12-10T18:32:15.126Z,3.80
2022-12-10T18:34:42.052Z,2.03
2022-12-10T18:37:10.843Z,3.84
2022-12-10T18:39:57.567Z,3.79
2022-12-10T18:42:41.354Z,3.84
2022-12-10T18:45:12.783Z,3.86
2022-12-10T18:47:39.864Z,3.62
2022-12-10T18:50:19.794Z,3.91
2022-12-10T18:52:46.924Z,3.77
2022-12-10T18:55:13.863Z,3.70
2022-12-10T18:57:44.871Z,3.65
2022-12-10T19:00:37.616Z,3.28
2022-12-10T19:03:41.917Z,3.01
2022-12-10T19:06:45.593Z,3.79
2022-12-10T19:09:46.586Z,4.00
2022-12-10T19:12:38.548Z,3.69
2022-12-10T19:15:27.690Z,3.60
2022-12-10T19:18:17.818Z,3.77
2022-12-10T19:20:44.822Z,3.13
2022-12-10T19:23:11.799Z,3.86
2022-12-10T19:25:39.078Z,3.72
2022-12-10T19:28:06.190Z,3.15
2022-12-10T19:30:33.469Z,3.85
2022-12-10T19:33:00.603Z,1.79
2022-12-10T19:35:47.603Z,2.77
2022-12-10T19:38:48.708Z,1.64
2022-12-10T19:41:31.272Z,3.49
2022-12-10T19:43:58.215Z,3.29
2022-12-10T19:46:27.167Z,1.49
2022-12-10T19:49:16.806Z,2.86
2022-12-10T19:52:17.754Z,3.00
2022-12-10T19:55:03.617Z,3.04
2022-12-10T19:57:30.603Z,2.77
2022-12-10T19:59:59.096Z,2.53
2022-12-10T20:02:26.509Z,2.40
2022-12-10T20:04:53.551Z,2.14
2022-12-10T20:07:40.634Z,2.82
2022-12-10T20:10:24.687Z,2.85
2022-12-10T20:12:52.015Z,1.72
2022-12-10T20:15:42.488Z,2.16
2022-12-10T20:18:47.632Z,2.89
2022-12-10T20:21:34.666Z,2.83
2022-12-10T20:24:03.368Z,2.89
2022-12-10T20:26:40.495Z,2.36
2022-12-10T20:29:36.623Z,3.11
2022-12-10T20:32:37.646Z,2.92
2022-12-10T20:35:19.730Z,3.16
2022-12-10T20:38:06.648Z,3.43
2022-12-10T20:41:07.633Z,3.14
2022-12-10T20:43:48.828Z,3.21
2022-12-10T20:46:41.755Z,3.18
2022-12-10T20:49:23.829Z,3.30
2022-12-10T20:51:51.375Z,2.33
2022-12-10T20:54:18.806Z,1.82
2022-12-10T20:56:46.119Z,3.10
2022-12-10T20:59:14.965Z,3.45
2022-12-10T21:01:42.623Z,3.18
2022-12-10T21:04:10.706Z,2.78
2022-12-10T21:06:58.700Z,3.53
2022-12-10T21:09:39.451Z,3.51
2022-12-10T21:12:09.935Z,3.18
2022-12-10T21:14:56.550Z,1.55
2022-12-10T21:17:44.656Z,2.75
2022-12-10T21:20:45.659Z,2.94
2022-12-10T21:23:28.137Z,3.42
2022-12-10T21:25:55.558Z,3.37
2022-12-10T21:28:42.691Z,3.05
2022-12-10T21:31:25.607Z,3.23
2022-12-10T21:33:53.107Z,3.11
2022-12-10T21:36:22.131Z,3.14
2022-12-10T21:38:49.457Z,2.69
2022-12-10T21:41:44.030Z,3.34
2022-12-10T21:44:12.588Z,3.28
2022-12-10T21:46:40.758Z,2.54
2022-12-10T21:49:27.681Z,3.16
2022-12-10T21:52:28.696Z,3.00
2022-12-10T21:55:10.294Z,3.03
2022-12-10T21:57:37.357Z,3.01
2022-12-10T22:00:06.302Z,2.76
2022-12-10T22:02:40.179Z,2.76
2022-12-10T22:05:09.241Z,2.54
2022-12-10T22:07:56.689Z,2.03
2022-12-10T22:10:37.785Z,3.34
2022-12-10T22:13:04.735Z,2.79
2022-12-10T22:15:31.725Z,3.23
2022-12-10T22:17:58.680Z,2.24
2022-12-10T22:20:55.837Z,1.62
2022-12-10T22:23:56.731Z,3.23
2022-12-10T22:26:37.538Z,3.54
2022-12-10T22:29:24.729Z,3.44
2022-12-10T22:32:06.219Z,3.44
2022-12-10T22:34:33.770Z,2.73
2022-12-10T22:37:01.221Z,3.40
2022-12-10T22:39:48.710Z,3.10
2022-12-10T22:42:29.342Z,2.96
2022-12-10T22:44:56.282Z,3.67
2022-12-10T22:47:23.233Z,3.43
2022-12-10T22:49:50.160Z,3.32
2022-12-10T22:52:17.033Z,3.24
2022-12-10T22:55:03.716Z,3.29
2022-12-10T22:57:44.387Z,2.82
2022-12-10T23:00:16.544Z,1.95
2022-12-10T23:02:43.615Z,2.68
2022-12-10T23:05:10.959Z,2.39
2022-12-10T23:07:58.747Z,2.91
2022-12-10T23:10:42.600Z,3.20
2022-12-10T23:13:11.188Z,3.14
2022-12-10T23:15:58.720Z,2.62
2022-12-10T23:18:40.046Z,3.10
2022-12-10T23:21:15.923Z,3.11
2022-12-10T23:23:43.005Z,2.32
2022-12-10T23:26:10.118Z,2.42
2022-12-10T23:28:37.145Z,2.87
2022-12-10T23:31:23.801Z,2.50
2022-12-10T23:34:24.742Z,2.43
2022-12-10T23:37:25.712Z,2.28
2022-12-10T23:40:07.380Z,2.24
2022-12-10T23:42:54.713Z,2.13
2022-12-10T23:45:35.507Z,2.67
2022-12-10T23:48:02.630Z,2.26
2022-12-10T23:50:32.928Z,2.53
2022-12-10T23:53:01.128Z,2.44
2022-12-10T23:55:28.492Z,2.56
2022-12-10T23:57:55.943Z,2.22
